| Record Date MM/DD/YYYY | Record Time HH:MM:SS | Record Julian Date NNN day of the year | Air Temperature Max (Degrees Fahrenheit F) | Time Max Air Temperature HH:MM:SS This is the time of max air temp for the prior hour interval listed for record [Time]. | Air Temperature Min (Degrees Fahrenheit F) | Time Min Air Temperature HH:MM:SS This is the time of min air temp for the prior hour interval listed for record [Time]. | Air Temperature Observed (Degrees Fahrenheit F) This is an instantaneous reading at the record [Time]. | Relative Humidity Max (Percent) | Time Max Relative Humidity HH:MM:SS This is the time of max relative humidity for the prior hour interval listed for record [Time]. | Relative Humidity Min (Percent) | Time Min Relative Humidity HH:MM:SS This is the time of min relative humidity for the prior hour interval listed for record [Time]. | Relative Humidity Observed (Percent) This is an instantaneous reading at the record [Time]. | Precipitation (Inches n.nn) rain fall that occurred during the prior hour interval listed for record [Time]. | Wind Speed (Miles Per Hour) Resultant Speed that occurred during the prior hour interval listed for record [Time]. | Wind Direction (Degrees) Resultant Direction that occurred during the prior hour interval listed for record [Time]. | Solar Radiation (Langley's) that occurred during the prior hour interval listed for record [Time]. | Soil Temperature Average at 2 inch depth (Degrees Fahrenheit F) that occurred during the prior hour interval listed for record [Time]. | Soil Temperature Observed at 2 inch depth (Degrees Fahrenheit F) This is an instantaneous reading at the record [Time]. | Soil Temperature Average at 4 inch depth (Degrees Fahrenheit F) that occurred during the prior hour interval listed for record [Time]. | Soil Temperature Observed at 4 inch depth (Degrees Fahrenheit F) This is an instantaneous reading at the record [Time]. |
|---|---|---|---|---|---|---|---|---|---|---|---|---|---|---|---|---|---|---|---|---|
| 05/02/2026 | 0:00:00 | 122 | 55 | 23:16:01 | 54 | 23:24:03 | 54 | 99 | 23:57:02 | 98 | 23:02:02 | 98.7 | 0.01 | 0.2 | 318 | |||||
| 05/02/2026 | 1:00:00 | 122 | 55 | 0:44:03 | 54 | 0:12:00 | 55 | 99 | 0:51:02 | 99 | 0:02:01 | 98.9 | 0.01 | 0.8 | 332 | |||||
| 05/02/2026 | 2:00:00 | 122 | 55 | 1:56:04 | 55 | 1:01:04 | 55 | 99 | 1:49:05 | 99 | 1:00:03 | 99 | 0.01 | 0.1 | 39 | |||||
| 05/02/2026 | 3:00:00 | 122 | 55 | 2:55:04 | 55 | 2:25:00 | 55 | 99 | 2:56:00 | 99 | 2:04:01 | 99.2 | 0 | 0.2 | 345 | |||||
| 05/02/2026 | 4:00:00 | 122 | 55 | 3:26:05 | 55 | 3:01:01 | 55 | 99 | 3:52:00 | 99 | 3:01:01 | 99.2 | 0 | 0.1 | 327 | |||||
| 05/02/2026 | 5:00:00 | 122 | 55 | 4:00:01 | 54 | 4:57:03 | 54 | 99 | 4:01:04 | 99 | 4:57:03 | 98.7 | 0 | 0.1 | 13 | |||||
| 05/02/2026 | 6:00:00 | 122 | 55 | 5:57:05 | 54 | 5:47:04 | 54 | 99 | 5:01:01 | 98 | 6:00:00 | 97.6 | 0 | 0.0 | 359 | |||||
| 05/02/2026 | 7:00:00 | 122 | 58 | 6:59:02 | 54 | 6:00:03 | 58 | 98 | 6:02:04 | 88 | 6:59:04 | 88.5 | 0 | 0.3 | 7 | |||||
| 05/02/2026 | 8:00:00 | 122 | 61 | 7:55:00 | 57 | 7:00:04 | 60 | 89 | 7:03:03 | 73 | 7:58:01 | 76.62 | 0 | 3.8 | 14 | |||||
| 05/02/2026 | 9:00:00 | 122 | 63 | 8:51:01 | 60 | 8:00:01 | 63 | 78 | 8:03:00 | 62 | 8:52:03 | 66.34 | 0 | 4.6 | 18 | |||||
| 05/02/2026 | 10:00:00 | 122 | 65 | 9:59:02 | 63 | 9:04:03 | 65 | 66 | 9:02:05 | 47 | 9:58:05 | 51.07 | 0 | 6.3 | 21 | |||||
| 05/02/2026 | 11:00:00 | 122 | 67 | 10:48:01 | 65 | 10:03:02 | 67 | 57 | 10:08:00 | 42 | 10:34:00 | 45.04 | 0 | 7.2 | 22 | |||||
| 05/02/2026 | 12:00:00 | 122 | 69 | 11:51:04 | 67 | 11:01:01 | 68 | 52 | 11:02:00 | 37 | 11:58:01 | 43.99 | 0 | 7.6 | 33 | |||||
| 05/02/2026 | 13:00:00 | 122 | 71 | 12:56:02 | 68 | 12:04:05 | 70 | 51 | 12:06:01 | 35 | 12:39:04 | 39.25 | 0 | 7.7 | 16 | |||||
| 05/02/2026 | 14:00:00 | 122 | 71 | 13:21:04 | 69 | 13:08:04 | 71 | 45 | 13:20:02 | 32 | 13:35:03 | 37.85 | 0 | 7.5 | 0 | |||||
| 05/02/2026 | 15:00:00 | 122 | 72 | 14:57:03 | 70 | 14:19:05 | 71 | 44 | 14:55:00 | 32 | 14:01:02 | 37.62 | 0 | 7.6 | 359 | |||||
| 05/02/2026 | 16:00:00 | 122 | 72 | 15:13:00 | 70 | 15:41:04 | 71 | 46 | 15:17:04 | 35 | 15:23:05 | 37.66 | 0 | 6.9 | 2 | |||||
| 05/02/2026 | 17:00:00 | 122 | 72 | 16:49:02 | 70 | 16:59:05 | 70 | 44 | 16:58:02 | 36 | 16:15:01 | 40.09 | 0 | 5.5 | 354 | |||||
| 05/02/2026 | 18:00:00 | 122 | 71 | 17:25:05 | 69 | 17:58:05 | 69 | 47 | 17:55:00 | 37 | 17:05:04 | 43.77 | 0 | 3.4 | 345 | |||||
| 05/02/2026 | 19:00:00 | 122 | 69 | 18:01:04 | 59 | 19:00:00 | 59 | 82 | 18:59:05 | 42 | 18:00:05 | 81.5 | 0 | 0.1 | 355 | |||||
| 05/02/2026 | 20:00:00 | 122 | 59 | 19:00:01 | 55 | 19:59:05 | 55 | 90 | 19:57:01 | 77 | 19:15:00 | 89.6 | 0 | 0.0 | 0 | |||||
| 05/02/2026 | 21:00:00 | 122 | 55 | 20:00:01 | 53 | 20:59:05 | 53 | 94 | 20:59:05 | 89 | 20:01:02 | 94.4 | 0 | 0.0 | 0 | |||||
| 05/02/2026 | 22:00:00 | 122 | 53 | 21:00:01 | 52 | 21:59:03 | 52 | 97 | 22:00:00 | 94 | 21:00:03 | 96.6 | 0 | 0.0 | 0 | |||||
| 05/02/2026 | 23:00:00 | 122 | 52 | 22:13:05 | 52 | 22:28:04 | 52 | 98 | 22:58:04 | 97 | 22:00:01 | 97.6 | 0 | 0.0 | 0 | |||||
| 05/03/2026 | 0:00:00 | 123 | 52 | 23:01:03 | 50 | 23:40:05 | 51 | 98 | 23:59:03 | 98 | 23:14:04 | 98.1 | 0 | 0.0 | 0 | |||||
| 05/03/2026 | 1:00:00 | 123 | 51 | 0:08:01 | 50 | 0:37:04 | 50 | 99 | 0:58:02 | 98 | 0:04:01 | 98.4 | 0 | 0.0 | 0 | |||||
| 05/03/2026 | 2:00:00 | 123 | 50 | 1:00:01 | 49 | 1:49:05 | 49 | 99 | 1:53:04 | 98 | 1:04:05 | 98.7 | 0 | 0.0 | 0 | |||||
| 05/03/2026 | 3:00:00 | 123 | 49 | 2:01:03 | 48 | 2:58:00 | 48 | 99 | 2:52:05 | 99 | 2:14:04 | 98.9 | 0 | 0.0 | 31 | |||||
| 05/03/2026 | 4:00:00 | 123 | 49 | 3:04:03 | 48 | 3:59:03 | 48 | 99 | 3:54:01 | 99 | 3:11:00 | 98.9 | 0 | 0.1 | 30 | |||||
| 05/03/2026 | 5:00:00 | 123 | 48 | 4:02:00 | 47 | 5:00:00 | 47 | 99 | 4:54:03 | 99 | 4:09:01 | 99 | 0 | 0.0 | 0 | |||||
| 05/03/2026 | 6:00:00 | 123 | 50 | 6:00:00 | 47 | 5:05:05 | 50 | 99 | 5:37:02 | 98 | 5:59:05 | 97.7 | 0 | 0.0 | 319 | |||||
| 05/03/2026 | 7:00:00 | 123 | 58 | 7:00:00 | 50 | 6:00:01 | 58 | 98 | 6:00:04 | 84 | 6:58:03 | 85.1 | 0 | 0.4 | 44 | |||||
| 05/03/2026 | 8:00:00 | 123 | 64 | 8:00:00 | 58 | 7:00:01 | 64 | 85 | 7:00:01 | 70 | 7:34:01 | 70.27 | 0 | 0.0 | 125 | |||||
| 05/03/2026 | 9:00:00 | 123 | 68 | 8:55:02 | 64 | 8:01:05 | 67 | 73 | 8:02:05 | 55 | 8:56:00 | 55.7 | 0 | 0.6 | 251 | |||||
| 05/03/2026 | 10:00:00 | 123 | 71 | 9:57:01 | 67 | 9:03:00 | 71 | 60 | 9:19:01 | 50 | 9:57:03 | 50.74 | 0 | 3.7 | 274 | |||||
| 05/03/2026 | 11:00:00 | 123 | 73 | 10:52:05 | 71 | 10:01:04 | 73 | 56 | 10:05:01 | 42 | 10:57:05 | 46.41 | 0 | 4.1 | 274 | |||||
| 05/03/2026 | 12:00:00 | 123 | 76 | 11:31:00 | 73 | 11:00:01 | 75 | 51 | 11:16:02 | 33 | 11:41:01 | 43.65 | 0 | 5.6 | 279 | |||||
| 05/03/2026 | 13:00:00 | 123 | 76 | 12:51:00 | 74 | 12:02:02 | 76 | 46 | 12:30:05 | 36 | 12:51:04 | 37.5 | 0 | 4.8 | 302 | |||||
| 05/03/2026 | 14:00:00 | 123 | 78 | 13:33:01 | 54 | 13:49:00 | 77 | 49 | 13:17:02 | 12 | 13:49:00 | 40.79 | 0 | 4.8 | 316 | |||||
| 05/03/2026 | 15:00:00 | 123 | 78 | 14:32:02 | 54 | 14:22:00 | 75 | 48 | 14:33:03 | 0 | 14:22:00 | 42.77 | 0 | 4.0 | 307 | |||||
| 05/03/2026 | 16:00:00 | 123 | 79 | 15:38:01 | 54 | 15:24:04 | 77 | 46 | 15:16:05 | 0 | 15:24:04 | 40.96 | 0 | 3.8 | 313 | |||||
| 05/03/2026 | 17:00:00 | 123 | 79 | 16:29:04 | 75 | 16:43:00 | 77 | 48 | 16:41:03 | 38 | 16:11:01 | 42.31 | 0 | 3.8 | 296 | |||||
| 05/03/2026 | 18:00:00 | 123 | 77 | 17:03:03 | 74 | 17:57:02 | 74 | 57 | 17:59:05 | 40 | 17:04:01 | 56.61 | 0 | 3.0 | 260 | |||||
| 05/03/2026 | 19:00:00 | 123 | 74 | 18:00:02 | 64 | 19:00:00 | 64 | 85 | 18:59:03 | 54 | 18:01:01 | 84.2 | 0 | 0.0 | 276 | |||||
| 05/03/2026 | 20:00:00 | 123 | 64 | 19:00:01 | 61 | 19:58:03 | 61 | 91 | 20:00:00 | 81 | 19:02:03 | 91 | 0 | 0.0 | 0 | |||||
| 05/03/2026 | 21:00:00 | 123 | 61 | 20:00:01 | 59 | 20:58:01 | 59 | 94 | 21:00:00 | 90 | 20:10:01 | 94.1 | 0 | 0.1 | 49 | |||||
| 05/03/2026 | 22:00:00 | 123 | 59 | 21:09:04 | 58 | 21:55:05 | 58 | 96 | 21:59:04 | 94 | 21:00:01 | 96.1 | 0 | 0.0 | 0 | |||||
| 05/03/2026 | 23:00:00 | 123 | 58 | 22:00:04 | 56 | 22:49:03 | 56 | 97 | 22:55:05 | 96 | 22:04:02 | 97.1 | 0 | 0.0 | 0 | |||||
| 05/04/2026 | 0:00:00 | 124 | 56 | 23:00:01 | 55 | 23:55:04 | 55 | 98 | 23:59:04 | 97 | 23:02:03 | 97.6 | 0 | 0.0 | 0 | |||||
| 05/04/2026 | 1:00:00 | 124 | 56 | 0:01:04 | 54 | 1:00:00 | 54 | 98 | 0:50:00 | 97 | 0:10:02 | 97.7 | 0 | 0.0 | 0 | |||||
| 05/04/2026 | 2:00:00 | 124 | 54 | 1:00:03 | 53 | 1:43:05 | 53 | 98 | 1:51:02 | 98 | 1:01:01 | 98.1 | 0 | 0.0 | 0 | |||||
| 05/04/2026 | 3:00:00 | 124 | 53 | 2:00:01 | 53 | 2:50:04 | 53 | 99 | 2:59:01 | 98 | 2:03:00 | 98.5 | 0 | 0.0 | 55 | |||||
| 05/04/2026 | 4:00:00 | 124 | 53 | 3:00:01 | 52 | 3:52:02 | 52 | 99 | 3:59:03 | 98 | 3:02:05 | 98.8 | 0 | 0.0 | 55 | |||||
| 05/04/2026 | 5:00:00 | 124 | 52 | 4:00:02 | 51 | 4:43:00 | 51 | 99 | 4:48:00 | 99 | 4:19:02 | 98.8 | 0 | 0.0 | 0 | |||||
| 05/04/2026 | 6:00:00 | 124 | 53 | 6:00:00 | 51 | 5:00:01 | 53 | 99 | 5:35:00 | 98 | 6:00:00 | 98 | 0 | 0.0 | 0 | |||||
| 05/04/2026 | 7:00:00 | 124 | 61 | 6:59:02 | 53 | 6:02:00 | 61 | 98 | 6:00:01 | 78 | 7:00:00 | 78.02 | 0 | 0.1 | 127 | |||||
| 05/04/2026 | 8:00:00 | 124 | 68 | 7:36:03 | 61 | 7:00:01 | 67 | 79 | 7:08:04 | 68 | 7:40:02 | 70.36 | 0 | 0.8 | 247 | |||||
| 05/04/2026 | 9:00:00 | 124 | 72 | 8:56:03 | 67 | 8:00:01 | 72 | 71 | 8:03:04 | 56 | 8:59:03 | 57.69 | 0 | 3.3 | 265 | |||||
| 05/04/2026 | 10:00:00 | 124 | 75 | 9:59:05 | 72 | 9:02:00 | 75 | 61 | 9:01:01 | 48 | 9:56:03 | 50.97 | 0 | 6.3 | 241 | |||||
| 05/04/2026 | 11:00:00 | 124 | 78 | 10:53:02 | 75 | 10:42:00 | 77 | 56 | 10:01:00 | 44 | 10:49:01 | 53.01 | 0 | 7.1 | 210 | |||||
| 05/04/2026 | 12:00:00 | 124 | 79 | 11:54:00 | 54 | 11:36:05 | 76 | 55 | 11:31:00 | 0 | 11:36:05 | 46.65 | 0 | 7.6 | 225 | |||||
| 05/04/2026 | 13:00:00 | 124 | 80 | 12:50:02 | 76 | 12:00:04 | 79 | 55 | 12:04:01 | 39 | 12:57:04 | 41.42 | 0 | 7.3 | 200 | |||||
| 05/04/2026 | 14:00:00 | 124 | 81 | 13:04:03 | 54 | 13:32:05 | 80 | 52 | 13:50:01 | 0 | 13:34:02 | 46.6 | 0 | 8.0 | 208 | |||||
| 05/04/2026 | 15:00:00 | 124 | 81 | 14:34:01 | 79 | 14:21:03 | 80 | 50 | 14:15:03 | 40 | 14:10:01 | 41.92 | 0 | 8.8 | 221 | |||||
| 05/04/2026 | 16:00:00 | 124 | 81 | 15:47:00 | 79 | 15:51:02 | 81 | 48 | 15:23:02 | 39 | 15:13:01 | 47.59 | 0 | 7.4 | 207 | |||||
| 05/04/2026 | 17:00:00 | 124 | 81 | 16:01:00 | 54 | 16:06:04 | 79 | 50 | 16:20:00 | 40 | 16:15:05 | 44.21 | 0 | 8.2 | 213 | |||||
| 05/04/2026 | 18:00:00 | 124 | 79 | 17:06:02 | 76 | 18:00:00 | 76 | 53 | 17:58:04 | 42 | 17:11:04 | 52.06 | 0 | 6.2 | 210 | |||||
| 05/04/2026 | 19:00:00 | 124 | 76 | 18:00:02 | 68 | 18:58:03 | 68 | 71 | 18:57:01 | 51 | 18:10:00 | 70.26 | 0 | 2.2 | 206 | |||||
| 05/04/2026 | 20:00:00 | 124 | 68 | 19:00:05 | 64 | 19:59:02 | 64 | 86 | 19:48:00 | 70 | 19:00:01 | 82.4 | 0 | 0.2 | 200 | |||||
| 05/04/2026 | 21:00:00 | 124 | 64 | 20:00:05 | 61 | 20:59:05 | 61 | 88 | 20:49:02 | 80 | 20:30:04 | 87.8 | 0 | 0.0 | 63 | |||||
| 05/04/2026 | 22:00:00 | 124 | 62 | 22:00:00 | 60 | 21:33:00 | 62 | 91 | 21:10:01 | 83 | 21:59:04 | 82.6 | 0 | 0.1 | 150 | |||||
| 05/04/2026 | 23:00:00 | 124 | 64 | 22:44:02 | 62 | 22:00:01 | 63 | 83 | 22:01:05 | 74 | 22:42:05 | 75.74 | 0 | 2.3 | 172 | |||||
| 05/05/2026 | 0:00:00 | 125 | 63 | 23:32:03 | 62 | 0:00:00 | 62 | 77 | 23:14:00 | 75 | 23:55:04 | 76.4 | 0 | 3.0 | 178 | |||||
| 05/05/2026 | 1:00:00 | 125 | 62 | 0:00:01 | 62 | 0:10:03 | 62 | 78 | 0:09:03 | 76 | 0:00:03 | 76.58 | 0 | 3.7 | 190 | |||||
| 05/05/2026 | 2:00:00 | 125 | 62 | 1:04:01 | 61 | 1:58:03 | 61 | 81 | 2:00:00 | 76 | 1:03:00 | 81.1 | 0 | 3.7 | 179 | |||||
| 05/05/2026 | 3:00:00 | 125 | 61 | 2:00:01 | 59 | 2:59:04 | 60 | 87 | 3:00:00 | 81 | 2:01:01 | 86.5 | 0 | 1.8 | 168 | |||||
| 05/05/2026 | 4:00:00 | 125 | 60 | 3:19:03 | 59 | 3:51:05 | 59 | 87 | 3:51:04 | 84 | 3:19:01 | 86.7 | 0 | 2.2 | 116 | |||||
| 05/05/2026 | 5:00:00 | 125 | 59 | 4:00:01 | 58 | 5:00:00 | 58 | 89 | 4:59:04 | 87 | 4:00:01 | 89.2 | 0 | 2.4 | 117 | |||||
| 05/05/2026 | 6:00:00 | 125 | 60 | 6:00:00 | 58 | 5:01:01 | 60 | 90 | 5:05:05 | 88 | 5:16:04 | 88.5 | 0 | 1.9 | 144 | |||||
| 05/05/2026 | 7:00:00 | 125 | 64 | 6:51:05 | 54 | 6:11:00 | 88 | 6:00:01 | 12 | 6:11:00 | 0 | 2.7 | 165 | |||||||
| 05/05/2026 | 8:00:00 | 125 | 70 | 7:57:05 | 54 | 7:22:02 | 70 | 79 | 7:06:04 | 0 | 7:22:02 | 73.11 | 0 | 6.2 | 185 | |||||
| 05/05/2026 | 9:00:00 | 125 | 73 | 9:00:00 | 70 | 8:05:04 | 73 | 75 | 8:06:00 | 69 | 8:21:02 | 70.21 | 0 | 8.1 | 190 | |||||
| 05/05/2026 | 10:00:00 | 125 | 75 | 10:00:00 | 73 | 9:00:01 | 75 | 72 | 9:37:01 | 68 | 9:07:02 | 69.44 | 0 | 9.1 | 197 | |||||
| 05/05/2026 | 11:00:00 | 125 | 79 | 11:00:00 | 54 | 10:34:00 | 79 | 72 | 10:50:00 | 0 | 10:34:00 | 70.16 | 0 | 7.0 | 185 | |||||
| 05/05/2026 | 12:00:00 | 125 | 83 | 11:53:00 | 54 | 11:39:04 | 69 | 11:00:01 | 0 | 11:39:04 | 0 | 7.1 | 191 | |||||||
| 05/05/2026 | 13:00:00 | 125 | 81 | 12:07:02 | 54 | 12:06:01 | 78 | 69 | 12:46:04 | 0 | 12:06:01 | 67.33 | 0 | 6.7 | 183 | |||||
| 05/05/2026 | 14:00:00 | 125 | 80 | 13:25:00 | 54 | 13:47:03 | 69 | 13:02:04 | 0 | 13:47:03 | 0 | 6.0 | 185 | |||||||
| 05/05/2026 | 15:00:00 | 125 | 80 | 14:23:00 | 54 | 14:26:01 | 79 | 71 | 14:57:02 | 0 | 14:26:01 | 70.25 | 0 | 5.4 | 188 | |||||
| 05/05/2026 | 16:00:00 | 125 | 79 | 15:39:05 | 78 | 15:14:04 | 79 | 71 | 15:34:02 | 67 | 15:47:05 | 70.98 | 0 | 6.4 | 190 | |||||
| 05/05/2026 | 17:00:00 | 125 | 79 | 16:23:03 | 78 | 16:51:05 | 79 | 74 | 16:50:05 | 69 | 16:22:02 | 72.7 | 0 | 6.5 | 170 | |||||
| 05/05/2026 | 18:00:00 | 125 | 79 | 17:01:04 | 77 | 18:00:00 | 77 | 77 | 17:59:01 | 71 | 17:05:04 | 75.95 | 0 | 6.0 | 163 | |||||
| 05/05/2026 | 19:00:00 | 125 | 77 | 18:01:00 | 75 | 18:59:04 | 76 | 79 | 18:58:05 | 76 | 18:00:02 | 79.24 | 0 | 5.0 | 171 | |||||
| 05/05/2026 | 20:00:00 | 125 | 76 | 19:03:02 | 75 | 19:52:00 | 75 | 82 | 19:51:00 | 78 | 19:02:02 | 81.1 | 0 | 4.5 | 166 | |||||
| 05/05/2026 | 21:00:00 | 125 | 75 | 20:11:04 | 75 | 20:59:05 | 75 | 82 | 20:04:01 | 80 | 20:11:04 | 81.2 | 0 | 6.5 | 159 | |||||
| 05/05/2026 | 22:00:00 | 125 | 75 | 21:01:00 | 73 | 21:59:01 | 73 | 85 | 21:59:05 | 81 | 21:00:01 | 85.4 | 0 | 6.9 | 165 | |||||
| 05/05/2026 | 23:00:00 | 125 | 74 | 22:16:01 | 73 | 22:57:04 | 73 | 89 | 22:59:00 | 85 | 22:00:02 | 88.3 | 0 | 5.8 | 183 | |||||
| 05/06/2026 | 0:00:00 | 126 | 73 | 23:00:03 | 72 | 23:54:04 | 72 | 91 | 23:55:02 | 88 | 23:00:04 | 90.4 | 0 | 6.2 | 184 | |||||
| 05/06/2026 | 1:00:00 | 126 | 72 | 0:14:03 | 72 | 0:54:05 | 72 | 91 | 0:56:01 | 90 | 0:19:00 | 91 | 0 | 6.8 | 188 | |||||
| 05/06/2026 | 2:00:00 | 126 | 72 | 1:26:00 | 71 | 1:12:02 | 72 | 92 | 1:34:01 | 91 | 1:56:02 | 91 | 0 | 5.9 | 203 | |||||
| 05/06/2026 | 3:00:00 | 126 | 72 | 2:47:03 | 72 | 2:03:03 | 72 | 91 | 2:01:00 | 89 | 2:46:02 | 89.2 | 0 | 6.6 | 211 | |||||
| 05/06/2026 | 4:00:00 | 126 | 72 | 3:04:02 | 71 | 3:59:01 | 71 | 89 | 3:00:03 | 89 | 3:48:03 | 88.7 | 0 | 4.7 | 194 | |||||
| 05/06/2026 | 5:00:00 | 126 | 71 | 4:00:01 | 71 | 4:32:03 | 71 | 91 | 4:57:05 | 89 | 4:01:00 | 90.4 | 0 | 3.4 | 186 | |||||
| 05/06/2026 | 6:00:00 | 126 | 72 | 5:23:02 | 71 | 5:59:03 | 71 | 92 | 6:00:00 | 90 | 5:24:03 | 92.2 | 0 | 0.7 | 221 | |||||
| 05/06/2026 | 7:00:00 | 126 | 71 | 6:00:03 | 71 | 6:07:05 | 71 | 95 | 6:59:04 | 92 | 6:00:01 | 94.7 | 0 | 0.8 | 139 | |||||
| 05/06/2026 | 8:00:00 | 126 | 72 | 7:50:05 | 71 | 7:00:01 | 72 | 95 | 7:01:05 | 94 | 7:21:03 | 94.1 | 0 | 4.6 | 151 | |||||
| 05/06/2026 | 9:00:00 | 126 | 73 | 8:59:05 | 72 | 8:07:02 | 73 | 95 | 8:32:02 | 94 | 8:51:05 | 94.5 | 0 | 4.5 | 167 | |||||
| 05/06/2026 | 10:00:00 | 126 | 77 | 9:50:02 | 73 | 9:00:01 | 76 | 95 | 9:00:02 | 89 | 9:33:00 | 90.5 | 0 | 6.5 | 171 | |||||
| 05/06/2026 | 11:00:00 | 126 | 76 | 10:57:02 | 76 | 10:30:03 | 76 | 91 | 10:16:03 | 89 | 10:49:00 | 89.7 | 0 | 3.9 | 211 | |||||
| 05/06/2026 | 12:00:00 | 126 | 82 | 11:59:05 | 76 | 11:01:02 | 82 | 91 | 11:02:03 | 79 | 11:57:03 | 79.71 | 0 | 3.8 | 222 | |||||
| 05/06/2026 | 13:00:00 | 126 | 83 | 12:25:01 | 81 | 12:06:03 | 83 | 83 | 12:07:03 | 76 | 12:58:04 | 76.95 | 0 | 6.1 | 226 | |||||
| 05/06/2026 | 14:00:00 | 126 | 83 | 13:07:00 | 81 | 13:44:00 | 82 | 81 | 13:46:03 | 75 | 13:09:00 | 79.46 | 0 | 6.2 | 202 | |||||
| 05/06/2026 | 15:00:00 | 126 | 82 | 14:00:01 | 78 | 14:31:03 | 79 | 92 | 14:28:05 | 79 | 14:02:04 | 89.5 | 0.04 | 3.4 | 190 | |||||
| 05/06/2026 | 16:00:00 | 126 | 80 | 15:38:03 | 78 | 15:59:04 | 78 | 91 | 15:59:05 | 86 | 15:39:01 | 91.2 | 0 | 4.2 | 206 | |||||
| 05/06/2026 | 17:00:00 | 126 | 78 | 16:13:01 | 54 | 16:03:02 | 69 | 95 | 16:54:03 | 12 | 16:58:00 | 95.1 | 0 | 5.1 | 349 | |||||
| 05/06/2026 | 18:00:00 | 126 | 69 | 17:00:02 | 54 | 17:01:03 | 65 | 96 | 17:09:00 | 0 | 17:01:03 | 95.3 | 0 | 4.8 | 19 | |||||
| 05/06/2026 | 19:00:00 | 126 | 66 | 18:06:03 | 63 | 18:56:04 | 63 | 97 | 18:58:00 | 95 | 18:00:04 | 97 | 0.03 | 4.8 | 356 | |||||
| 05/06/2026 | 20:00:00 | 126 | 63 | 19:57:02 | 54 | 19:32:05 | 63 | 97 | 19:34:05 | 0 | 19:32:05 | 97.2 | 0 | 1.8 | 7 | |||||
| 05/06/2026 | 21:00:00 | 126 | 63 | 20:31:03 | 63 | 20:51:01 | 63 | 97 | 20:58:03 | 97 | 20:37:01 | 97.3 | 0 | 3.6 | 16 | |||||
| 05/06/2026 | 22:00:00 | 126 | 63 | 21:00:01 | 61 | 21:59:05 | 61 | 98 | 21:10:03 | 97 | 21:40:04 | 97 | 0 | 3.4 | 356 | |||||
| 05/06/2026 | 23:00:00 | 126 | 61 | 22:00:01 | 60 | 22:54:01 | 60 | 97 | 22:59:03 | 97 | 22:02:05 | 97.2 | 0 | 3.9 | 349 | |||||
| 05/07/2026 | 0:00:00 | 127 | 60 | 23:07:02 | 59 | 23:50:02 | 59 | 98 | 23:07:01 | 97 | 23:39:04 | 97.1 | 0 | 3.7 | 353 | |||||
| 05/07/2026 | 1:00:00 | 127 | 59 | 0:18:05 | 59 | 0:53:01 | 59 | 97 | 0:01:04 | 97 | 0:59:03 | 96.6 | 0 | 2.3 | 346 | |||||
| 05/07/2026 | 2:00:00 | 127 | 59 | 1:12:01 | 54 | 1:27:02 | 59 | 97 | 1:56:05 | 0 | 1:27:02 | 97.1 | 0 | 2.1 | 337 | |||||
| 05/07/2026 | 3:00:00 | 127 | 59 | 2:01:00 | 58 | 2:52:05 | 58 | 97 | 2:47:05 | 97 | 2:33:04 | 96.9 | 0 | 3.6 | 346 | |||||
| 05/07/2026 | 4:00:00 | 127 | 58 | 3:36:05 | 58 | 3:48:04 | 58 | 97 | 3:03:03 | 96 | 3:52:01 | 96.1 | 0 | 3.4 | 350 | |||||
| 05/07/2026 | 5:00:00 | 127 | 58 | 4:22:01 | 58 | 4:30:02 | 58 | 97 | 4:22:01 | 96 | 4:59:02 | 95.8 | 0 | 2.6 | 357 | |||||
| 05/07/2026 | 6:00:00 | 127 | 58 | 5:07:04 | 54 | 5:45:02 | 96 | 5:42:05 | 0 | 5:45:02 | 0 | 2.5 | 351 | |||||||
| 05/07/2026 | 7:00:00 | 127 | 58 | 6:58:05 | 57 | 6:28:01 | 58 | 96 | 6:10:03 | 95 | 6:59:04 | 95 | 0 | 3.0 | 10 | |||||
| 05/07/2026 | 8:00:00 | 127 | 59 | 7:46:05 | 54 | 7:18:05 | 59 | 95 | 7:02:02 | 0 | 7:18:05 | 93.4 | 0 | 1.8 | 342 | |||||
| 05/07/2026 | 9:00:00 | 127 | 60 | 8:55:04 | 54 | 8:14:02 | 60 | 94 | 8:20:02 | 0 | 8:14:02 | 93.1 | 0 | 4.4 | 356 | |||||
| 05/07/2026 | 10:00:00 | 127 | 61 | 9:57:02 | 59 | 9:02:01 | 60 | 93 | 9:04:03 | 90 | 9:57:05 | 91.3 | 0 | 4.5 | 8 | |||||
| 05/07/2026 | 11:00:00 | 127 | 61 | 10:32:05 | 60 | 10:15:04 | 60 | 92 | 10:37:04 | 90 | 10:55:02 | 90.9 | 0 | 4.3 | 343 | |||||
| 05/07/2026 | 12:00:00 | 127 | 62 | 12:00:00 | 54 | 11:16:01 | 62 | 91 | 11:06:05 | 12 | 11:16:01 | 87.8 | 0.01 | 3.5 | 356 | |||||
| 05/07/2026 | 13:00:00 | 127 | 66 | 12:59:05 | 63 | 12:00:01 | 88 | 12:00:01 | 79 | 12:48:04 | 0 | 3.2 | 20 | |||||||
| 05/07/2026 | 14:00:00 | 127 | 70 | 13:44:00 | 65 | 13:19:01 | 68 | 83 | 13:16:01 | 71 | 13:45:01 | 75.39 | 0 | 2.0 | 45 | |||||
| 05/07/2026 | 15:00:00 | 127 | 72 | 14:16:03 | 69 | 14:00:01 | 71 | 78 | 14:29:03 | 67 | 14:09:02 | 71.04 | 0 | 2.2 | 49 | |||||
| 05/07/2026 | 16:00:00 | 127 | 73 | 15:45:04 | 70 | 15:06:05 | 72 | 75 | 15:07:03 | 65 | 15:46:03 | 70.46 | 0 | 1.7 | 9 | |||||
| 05/07/2026 | 17:00:00 | 127 | 72 | 16:17:01 | 54 | 16:37:02 | 73 | 16:09:04 | 0 | 16:37:02 | 0 | 1.9 | 9 | |||||||
| 05/07/2026 | 18:00:00 | 127 | 69 | 17:01:02 | 54 | 17:20:05 | 77 | 17:40:02 | 0 | 17:46:01 | 0 | 0.3 | 350 | |||||||
| 05/07/2026 | 19:00:00 | 127 | 67 | 18:02:00 | 54 | 18:50:02 | 87 | 18:55:00 | 0 | 18:50:02 | 0 | 0.0 | 0 | |||||||
| 05/07/2026 | 20:00:00 | 127 | 63 | 19:38:00 | 54 | 19:43:02 | 93 | 19:59:05 | 0 | 19:43:02 | 0 | 0.0 | 0 | |||||||
| 05/07/2026 | 21:00:00 | 127 | 61 | 20:14:03 | 54 | 20:07:02 | 60 | 96 | 21:00:00 | 0 | 20:07:02 | 96.3 | 0 | 0.1 | 348 | |||||
| 05/07/2026 | 22:00:00 | 127 | 61 | 21:03:04 | 54 | 21:43:02 | 97 | 21:57:04 | 0 | 21:43:02 | 0 | 0.1 | 115 | |||||||
| 05/07/2026 | 23:00:00 | 127 | 61 | 22:00:01 | 54 | 22:00:04 | 97 | 22:40:04 | 0 | 22:00:04 | 0 | 0.1 | 13 | |||||||
| 05/08/2026 | 0:00:00 | 128 | 61 | 23:04:04 | 54 | 23:01:04 | 60 | 98 | 23:30:01 | 0 | 23:01:04 | 96.2 | 0 | 0.8 | 0 | |||||
| 05/08/2026 | 1:00:00 | 128 | 60 | 0:00:01 | 54 | 0:20:01 | 97 | 0:12:00 | 12 | 0:20:01 | 0 | 0.5 | 331 | |||||||
| 05/08/2026 | 2:00:00 | 128 | 60 | 1:17:01 | 54 | 1:12:04 | 96 | 1:31:01 | 0 | 1:35:03 | 0 | 0.4 | 12 | |||||||
| 05/08/2026 | 3:00:00 | 128 | 59 | 2:55:04 | 54 | 2:03:04 | 93 | 2:55:04 | 0 | 2:03:04 | 0 | 0.1 | 1 | |||||||
| 05/08/2026 | 4:00:00 | 128 | 59 | 3:21:01 | 54 | 3:13:04 | 58 | 95 | 3:21:01 | 0 | 3:13:04 | 93.9 | 0 | 0.0 | 13 | |||||
| 05/08/2026 | 5:00:00 | 128 | 58 | 4:06:00 | 54 | 4:06:02 | 58 | 95 | 4:45:02 | 0 | 4:32:02 | 93.5 | 0 | 0.6 | 49 | |||||
| 05/08/2026 | 6:00:00 | 128 | 58 | 5:10:03 | 58 | 5:40:00 | 94 | 5:50:02 | 93 | 5:09:05 | 0 | 0.5 | 50 | |||||||
| 05/08/2026 | 7:00:00 | 128 | 62 | 7:00:00 | 58 | 6:00:04 | 62 | 94 | 6:03:02 | 85 | 6:50:03 | 85.4 | 0 | 3.8 | 63 | |||||
| 05/08/2026 | 8:00:00 | 128 | 64 | 7:56:04 | 62 | 7:00:01 | 64 | 85 | 7:00:05 | 77 | 7:58:01 | 76.8 | 0 | 4.6 | 74 | |||||
| 05/08/2026 | 9:00:00 | 128 | 65 | 8:52:04 | 64 | 8:00:01 | 65 | 79 | 8:25:01 | 74 | 8:21:05 | 75.41 | 0 | 3.5 | 65 | |||||
| 05/08/2026 | 10:00:00 | 128 | 65 | 9:04:00 | 64 | 9:59:03 | 64 | 83 | 9:56:02 | 75 | 9:00:02 | 80.1 | 0 | 3.3 | 101 | |||||
| 05/08/2026 | 11:00:00 | 128 | 64 | 11:00:00 | 64 | 10:33:04 | 64 | 84 | 10:28:01 | 79 | 10:53:02 | 82.3 | 0 | 5.2 | 126 | |||||
| 05/08/2026 | 12:00:00 | 128 | 65 | 11:51:02 | 54 | 11:21:02 | 65 | 82 | 11:00:01 | 0 | 11:21:02 | 76.37 | 0 | 6.5 | 91 | |||||
| 05/08/2026 | 13:00:00 | 128 | 65 | 12:09:00 | 64 | 12:56:03 | 83 | 12:56:01 | 77 | 12:01:04 | 0 | 6.6 | 108 | |||||||
| 05/08/2026 | 14:00:00 | 128 | 64 | 13:02:01 | 64 | 13:56:01 | 86 | 13:56:01 | 85 | 13:02:01 | 0 | 4.2 | 108 | |||||||
| 05/08/2026 | 15:00:00 | 128 | 66 | 14:48:03 | 54 | 14:18:04 | 87 | 14:45:05 | 0 | 14:18:04 | 0 | 6.0 | 92 | |||||||
| 05/08/2026 | 16:00:00 | 128 | 0:00:00 | 0:00:00 | 0:00:00 | 0:00:00 | 0 | 7.4 | 107 | |||||||||||
| 05/08/2026 | 17:00:00 | 128 | 67 | 16:26:04 | 54 | 16:28:01 | 88 | 16:26:04 | 0 | 16:28:01 | 0 | 7.0 | 137 | |||||||
| 05/08/2026 | 18:00:00 | 128 | 66 | 17:08:01 | 54 | 17:54:05 | 92 | 17:39:04 | 0 | 17:54:05 | 0 | 4.7 | 140 | |||||||
| 05/08/2026 | 19:00:00 | 128 | 66 | 18:08:01 | 54 | 18:31:02 | 65 | 94 | 19:00:00 | 0 | 18:32:01 | 93.8 | 0 | 3.9 | 174 | |||||
| 05/08/2026 | 20:00:00 | 128 | 65 | 19:00:03 | 54 | 19:06:02 | 65 | 97 | 19:59:05 | 0 | 19:06:02 | 96.6 | 0 | 3.4 | 165 | |||||
| 05/08/2026 | 21:00:00 | 128 | 65 | 20:00:01 | 65 | 20:32:02 | 65 | 98 | 20:59:00 | 97 | 20:00:04 | 97.7 | 0 | 2.1 | 142 | |||||
| 05/08/2026 | 22:00:00 | 128 | 65 | 21:59:03 | 65 | 21:09:00 | 65 | 98 | 21:59:03 | 98 | 21:04:01 | 98.3 | 0 | 2.3 | 116 | |||||
| 05/08/2026 | 23:00:00 | 128 | 65 | 22:53:00 | 65 | 22:03:02 | 65 | 98 | 22:28:00 | 98 | 22:00:02 | 98.4 | 0 | 0.6 | 135 | |||||
| 05/09/2026 | 0:00:00 | 129 | 65 | 23:02:00 | 65 | 23:32:01 | 65 | 98 | 23:45:00 | 98 | 23:31:00 | 98.3 | 0 | 0.6 | 84 | |||||
| 05/09/2026 | 1:00:00 | 129 | 65 | 0:41:04 | 65 | 0:00:03 | 65 | 98 | 0:02:01 | 98 | 0:42:05 | 98.3 | 0 | 1.0 | 71 | |||||
| 05/09/2026 | 2:00:00 | 129 | 65 | 1:14:04 | 65 | 1:55:02 | 65 | 99 | 1:58:03 | 98 | 1:01:04 | 98.6 | 0 | 0.8 | 48 | |||||
| 05/09/2026 | 3:00:00 | 129 | 65 | 2:00:02 | 65 | 2:21:01 | 65 | 99 | 2:54:04 | 99 | 2:07:05 | 99 | 0.05 | 2.9 | 63 | |||||
| 05/09/2026 | 4:00:00 | 129 | 65 | 3:01:02 | 65 | 3:50:04 | 65 | 99 | 3:58:05 | 99 | 3:14:03 | 99.1 | 1.16 | 5.0 | 93 | |||||
| 05/09/2026 | 5:00:00 | 129 | 65 | 4:47:04 | 65 | 4:00:04 | 65 | 99 | 4:45:05 | 99 | 4:00:05 | 99.3 | 0.13 | 2.5 | 184 | |||||
| 05/09/2026 | 6:00:00 | 129 | 65 | 5:59:05 | 64 | 5:39:03 | 65 | 99 | 5:07:03 | 99 | 5:59:04 | 98.8 | 0.09 | 5.2 | 140 | |||||
| 05/09/2026 | 7:00:00 | 129 | 66 | 6:58:03 | 65 | 6:03:05 | 66 | 99 | 6:00:05 | 99 | 6:45:00 | 98.6 | 0 | 4.3 | 325 | |||||
| 05/09/2026 | 8:00:00 | 129 | 67 | 7:53:01 | 66 | 7:00:02 | 67 | 99 | 7:02:03 | 97 | 8:00:00 | 97.2 | 0 | 0.9 | 215 | |||||
| 05/09/2026 | 9:00:00 | 129 | 69 | 8:58:05 | 67 | 8:01:04 | 69 | 97 | 8:05:00 | 94 | 8:51:04 | 95 | 0 | 3.5 | 179 | |||||
| 05/09/2026 | 10:00:00 | 129 | 70 | 9:58:03 | 69 | 9:30:04 | 70 | 96 | 9:09:02 | 93 | 9:59:05 | 93.1 | 0 | 4.0 | 165 | |||||
| 05/09/2026 | 11:00:00 | 129 | 71 | 10:40:00 | 69 | 10:12:03 | 71 | 95 | 10:18:01 | 89 | 10:47:00 | 90.1 | 0 | 1.8 | 199 | |||||
| Average | 66.4 | 61.72 | 65.52 | 84.65 | 62.07 | 81.29 | 0.01 | 3.22 | 0 | 0 | 0 | 0 | 0 | |||||||
| Total | 1.54 |